Terminal Aerodrome Forecast
Issued by NWS

Home | Current Version | Previous Version | Text Only | Print | Product List | Glossary On
Versions: 1 2 3 4 5 6 7 8 9 10 11 12 13 14 15 16 17 18 19 20 21 22 23 24 25 26 27 28 29 30
000
FTUS44 KLIX 301120
TAFHUM
TAF
KHUM 301120Z 3012/3112 09005KT P6SM -RA SCT035 BKN060
     FM301500 09007KT P6SM BKN060
      TEMPO 3015/3018 4SM TSRA OVC040CB
     FM301800 12012KT P6SM OVC090
      TEMPO 3018/3021 4SM TSRA OVC040CB
     FM302100 14012KT P6SM SHRA VCTS OVC060CB
     FM310000 14010KT P6SM BKN080=

USA.gov is the U.S. government's official web portal to all federal, state and local government web resources and services.